createdAt,value
2019-05-03T00:00:39.181Z,0.00
2019-05-03T00:01:39.134Z,0.00
2019-05-03T00:02:39.129Z,0.00
2019-05-03T00:03:39.120Z,0.00
2019-05-03T00:04:39.100Z,0.00
2019-05-03T00:05:39.107Z,0.00
2019-05-03T00:06:39.099Z,0.00
2019-05-03T00:07:39.073Z,0.00
2019-05-03T00:08:46.941Z,0.00
2019-05-03T00:09:39.053Z,0.00
2019-05-03T00:10:39.055Z,0.00
2019-05-03T00:11:39.028Z,0.00
2019-05-03T00:12:39.044Z,0.00
2019-05-03T00:13:39.018Z,0.00
2019-05-03T00:14:39.015Z,0.00
2019-05-03T00:15:38.992Z,0.00
2019-05-03T00:16:38.986Z,0.00
2019-05-03T00:17:38.970Z,0.00
2019-05-03T00:18:38.976Z,0.00
2019-05-03T00:19:38.956Z,0.00
2019-05-03T00:20:38.933Z,0.00
2019-05-03T00:21:38.937Z,0.00
2019-05-03T00:22:38.911Z,0.00
2019-05-03T00:23:38.906Z,0.00
2019-05-03T00:24:38.933Z,0.00
2019-05-03T00:25:38.887Z,0.00
2019-05-03T00:26:38.867Z,0.00
2019-05-03T00:27:38.864Z,0.00
2019-05-03T00:28:38.849Z,0.00
2019-05-03T00:29:38.843Z,0.00
2019-05-03T00:30:38.850Z,0.00
2019-05-03T00:31:38.815Z,0.00
2019-05-03T00:32:38.807Z,0.00
2019-05-03T00:33:38.800Z,0.00
2019-05-03T00:34:38.785Z,0.00
2019-05-03T00:35:38.774Z,0.00
2019-05-03T00:36:38.782Z,0.00
2019-05-03T00:37:38.786Z,0.00
2019-05-03T00:38:38.763Z,0.00
2019-05-03T00:39:38.736Z,0.00
2019-05-03T00:40:38.724Z,0.00
2019-05-03T00:41:38.718Z,0.00
2019-05-03T00:42:38.748Z,0.00
2019-05-03T00:43:38.707Z,0.00
2019-05-03T00:44:38.682Z,0.00
2019-05-03T00:45:38.672Z,0.00
2019-05-03T00:46:38.664Z,0.00
2019-05-03T00:47:38.662Z,0.00
2019-05-03T00:48:38.664Z,0.00
2019-05-03T00:49:38.636Z,0.00
2019-05-03T00:50:38.629Z,0.00
2019-05-03T00:51:38.611Z,0.00
2019-05-03T00:52:38.614Z,0.00
2019-05-03T00:53:38.594Z,0.00
2019-05-03T00:54:38.599Z,0.00
2019-05-03T00:55:38.571Z,0.00
2019-05-03T00:56:38.556Z,0.00
2019-05-03T00:57:38.563Z,0.00
2019-05-03T00:58:38.538Z,0.00
2019-05-03T00:59:38.528Z,0.00
2019-05-03T01:00:38.551Z,0.00
2019-05-03T01:01:38.508Z,0.00
2019-05-03T01:02:38.497Z,0.00
2019-05-03T01:03:38.481Z,0.00
2019-05-03T01:04:38.472Z,0.00
2019-05-03T01:05:38.483Z,0.00
2019-05-03T01:06:38.974Z,0.00
2019-05-03T01:07:38.459Z,0.00
2019-05-03T01:08:38.432Z,0.00
2019-05-03T01:09:38.416Z,0.00
2019-05-03T01:10:38.419Z,0.00
2019-05-03T01:11:38.427Z,0.00
2019-05-03T01:12:38.403Z,0.00
2019-05-03T01:13:38.378Z,0.00
2019-05-03T01:14:38.372Z,0.00
2019-05-03T01:15:38.359Z,0.00
2019-05-03T01:16:38.353Z,0.00
2019-05-03T01:17:38.342Z,0.00
2019-05-03T01:18:38.371Z,0.00
2019-05-03T01:19:38.344Z,0.00
2019-05-03T01:20:38.313Z,0.00
2019-05-03T01:21:38.302Z,0.00
2019-05-03T01:22:38.283Z,0.00
2019-05-03T01:23:38.271Z,0.00
2019-05-03T01:24:38.284Z,0.00
2019-05-03T01:25:38.254Z,0.00
2019-05-03T01:26:38.243Z,0.00
2019-05-03T01:27:38.233Z,0.00
2019-05-03T01:28:38.225Z,0.00
2019-05-03T01:29:38.217Z,0.00
2019-05-03T01:30:38.272Z,0.00
2019-05-03T01:31:38.193Z,0.00
2019-05-03T01:32:38.181Z,0.00
2019-05-03T01:33:38.173Z,0.00
2019-05-03T01:34:38.161Z,0.00
2019-05-03T01:35:38.148Z,0.00
2019-05-03T01:36:38.157Z,0.00
2019-05-03T01:37:38.131Z,0.00
2019-05-03T01:38:38.137Z,0.00
2019-05-03T01:39:38.105Z,0.00
2019-05-03T01:40:38.097Z,0.00
2019-05-03T01:41:38.090Z,0.00
2019-05-03T01:42:38.105Z,0.00
2019-05-03T01:43:38.068Z,0.00
2019-05-03T01:44:38.058Z,0.00
2019-05-03T01:45:38.044Z,0.00
2019-05-03T01:46:38.046Z,0.00
2019-05-03T01:47:38.036Z,0.00
2019-05-03T01:48:38.037Z,0.00
2019-05-03T01:49:38.009Z,0.00
2019-05-03T01:50:37.989Z,0.00
2019-05-03T01:51:37.984Z,0.00
2019-05-03T01:52:37.976Z,0.00
2019-05-03T01:53:37.968Z,0.00
2019-05-03T01:54:37.967Z,0.00
2019-05-03T01:55:44.430Z,0.00
2019-05-03T01:56:38.927Z,0.00
2019-05-03T01:57:37.917Z,0.00
2019-05-03T01:58:37.910Z,0.00
2019-05-03T01:59:37.910Z,0.00
2019-05-03T02:00:37.904Z,0.00
2019-05-03T02:01:37.886Z,0.00
2019-05-03T02:02:37.867Z,0.00
2019-05-03T02:03:37.856Z,0.00
2019-05-03T02:04:37.845Z,0.00
2019-05-03T02:05:37.842Z,0.00
2019-05-03T02:06:37.848Z,0.00
2019-05-03T02:07:37.817Z,0.00
2019-05-03T02:08:37.803Z,0.00
2019-05-03T02:09:37.790Z,0.00
2019-05-03T02:10:37.808Z,0.00
2019-05-03T02:11:37.785Z,0.00
2019-05-03T02:12:37.787Z,0.00
2019-05-03T02:13:37.749Z,0.00
2019-05-03T02:14:37.765Z,0.00
2019-05-03T02:15:37.739Z,0.00
2019-05-03T02:16:37.728Z,0.00
2019-05-03T02:17:37.713Z,0.00
2019-05-03T02:18:37.723Z,0.00
2019-05-03T02:19:37.692Z,0.00
2019-05-03T02:20:37.680Z,0.00
2019-05-03T02:21:37.667Z,0.00
2019-05-03T02:22:37.657Z,0.00
2019-05-03T02:23:37.648Z,0.00
2019-05-03T02:24:37.654Z,0.00
2019-05-03T02:25:37.627Z,0.00
2019-05-03T02:26:37.616Z,0.00
2019-05-03T02:27:37.612Z,0.00
2019-05-03T02:28:37.601Z,0.00
2019-05-03T02:29:37.591Z,0.00
2019-05-03T02:30:37.594Z,0.00
2019-05-03T02:31:37.563Z,0.00
2019-05-03T02:32:37.571Z,0.00
2019-05-03T02:33:37.546Z,0.00
2019-05-03T02:34:37.532Z,0.00
2019-05-03T02:35:37.526Z,0.00
2019-05-03T02:36:37.546Z,0.00
2019-05-03T02:37:37.504Z,0.00
2019-05-03T02:38:37.494Z,0.00
2019-05-03T02:39:37.494Z,0.00
2019-05-03T02:40:37.470Z,0.00
2019-05-03T02:41:37.458Z,0.00
2019-05-03T02:42:37.489Z,0.00
2019-05-03T02:43:37.476Z,0.00
2019-05-03T02:44:37.427Z,0.00
2019-05-03T02:45:37.416Z,0.00
2019-05-03T02:46:37.424Z,0.00
2019-05-03T02:47:37.474Z,0.00
2019-05-03T02:48:37.446Z,0.00
2019-05-03T02:49:37.373Z,0.00
2019-05-03T02:50:37.363Z,0.00
2019-05-03T02:51:37.379Z,0.00
2019-05-03T02:52:37.721Z,0.00
2019-05-03T02:53:37.356Z,0.00
2019-05-03T02:54:37.338Z,0.00
2019-05-03T02:55:37.315Z,0.00
2019-05-03T02:56:37.309Z,0.00
2019-05-03T02:57:37.339Z,0.00
2019-05-03T02:58:37.278Z,0.00
2019-05-03T02:59:37.267Z,0.00
2019-05-03T03:00:37.280Z,0.00
2019-05-03T03:01:37.251Z,0.00
2019-05-03T03:02:37.251Z,0.00
2019-05-03T03:03:37.223Z,0.00
2019-05-03T03:04:37.213Z,0.00
2019-05-03T03:05:37.207Z,0.00
2019-05-03T03:06:37.228Z,0.00
2019-05-03T03:07:37.885Z,0.00
2019-05-03T03:08:37.253Z,0.00
2019-05-03T03:09:37.182Z,0.00
2019-05-03T03:10:37.157Z,0.00
2019-05-03T03:11:37.188Z,0.00
2019-05-03T03:12:37.197Z,0.00
2019-05-03T03:13:37.219Z,0.00
2019-05-03T03:14:37.119Z,0.00
2019-05-03T03:15:37.116Z,0.00
2019-05-03T03:16:37.118Z,0.00
2019-05-03T03:17:37.081Z,0.00
2019-05-03T03:18:37.105Z,0.00
2019-05-03T03:19:37.057Z,0.00
2019-05-03T03:20:37.056Z,0.00
2019-05-03T03:21:37.054Z,0.00
2019-05-03T03:22:37.047Z,0.00
2019-05-03T03:23:37.021Z,0.00
2019-05-03T03:24:37.025Z,0.00
2019-05-03T03:25:37.006Z,0.00
2019-05-03T03:26:42.521Z,4.00
2019-05-03T03:27:37.980Z,4.00
2019-05-03T03:28:36.964Z,0.00
2019-05-03T03:29:36.957Z,4.00
2019-05-03T03:30:38.170Z,4.00
2019-05-03T03:31:38.186Z,4.00
2019-05-03T03:32:38.967Z,4.00
2019-05-03T03:33:40.254Z,4.00
2019-05-03T03:34:38.519Z,4.00
2019-05-03T03:35:38.019Z,4.00
2019-05-03T03:36:54.549Z,4.00
2019-05-03T03:37:37.869Z,8.00
2019-05-03T03:38:36.857Z,4.00
2019-05-03T03:39:36.865Z,4.00
2019-05-03T03:40:36.836Z,8.00
2019-05-03T03:41:36.824Z,8.00
2019-05-03T03:42:36.843Z,8.00
2019-05-03T03:43:36.805Z,12.00
2019-05-03T03:44:36.791Z,16.00
2019-05-03T03:45:36.792Z,16.00
2019-05-03T03:46:36.775Z,20.00
2019-05-03T03:47:36.763Z,20.00
2019-05-03T03:48:36.790Z,20.00
2019-05-03T03:49:36.746Z,28.00
2019-05-03T03:50:36.741Z,28.00
2019-05-03T03:51:36.721Z,28.00
2019-05-03T03:52:36.712Z,28.00
2019-05-03T03:53:36.706Z,36.00
2019-05-03T03:54:36.717Z,48.00
2019-05-03T03:55:36.683Z,52.00
2019-05-03T03:56:53.765Z,60.00
2019-05-03T03:57:37.668Z,80.00
2019-05-03T03:58:36.658Z,104.00
2019-05-03T03:59:36.772Z,128.00
2019-05-03T04:00:36.675Z,144.00
2019-05-03T04:01:36.617Z,172.00
2019-05-03T04:02:36.613Z,216.00
2019-05-03T04:03:36.594Z,252.00
2019-05-03T04:04:36.617Z,272.00
2019-05-03T04:05:36.572Z,292.00
2019-05-03T04:06:36.576Z,276.00
2019-05-03T04:07:36.555Z,372.00
2019-05-03T04:08:36.544Z,416.00
2019-05-03T04:09:36.898Z,396.00
2019-05-03T04:10:36.530Z,356.00
2019-05-03T04:11:36.517Z,352.00
2019-05-03T04:12:36.516Z,444.00
2019-05-03T04:13:36.507Z,508.00
2019-05-03T04:14:36.477Z,596.00
2019-05-03T04:15:37.262Z,592.00
2019-05-03T04:16:36.631Z,500.00
2019-05-03T04:17:36.450Z,528.00
2019-05-03T04:18:36.457Z,484.00
2019-05-03T04:19:36.596Z,448.00
2019-05-03T04:20:36.411Z,384.00
2019-05-03T04:21:36.400Z,412.00
2019-05-03T04:22:36.477Z,608.00
2019-05-03T04:23:36.395Z,600.00
2019-05-03T04:24:36.385Z,468.00
2019-05-03T04:25:36.355Z,468.00
2019-05-03T04:26:36.349Z,636.00
2019-05-03T04:27:36.601Z,728.00
2019-05-03T04:28:36.342Z,884.00
2019-05-03T04:29:36.326Z,1012.00
2019-05-03T04:30:36.729Z,1172.00
2019-05-03T04:31:36.924Z,1236.00
2019-05-03T04:32:36.304Z,1208.00
2019-05-03T04:33:36.274Z,1400.00
2019-05-03T04:34:36.270Z,1508.00
2019-05-03T04:35:36.746Z,1532.00
2019-05-03T04:36:36.261Z,1736.00
2019-05-03T04:37:36.232Z,1972.00
2019-05-03T04:38:36.222Z,2088.00
2019-05-03T04:39:36.338Z,1804.00
2019-05-03T04:40:36.228Z,1760.00
2019-05-03T04:41:36.209Z,1936.00
2019-05-03T04:42:36.207Z,2296.00
2019-05-03T04:43:36.166Z,2464.00
2019-05-03T04:44:36.254Z,2252.00
2019-05-03T04:45:36.864Z,2576.00
2019-05-03T04:46:36.134Z,3028.00
2019-05-03T04:47:36.125Z,3132.00
2019-05-03T04:48:36.137Z,3324.00
2019-05-03T04:49:36.474Z,4124.00
2019-05-03T04:50:36.871Z,3836.00
2019-05-03T04:51:36.097Z,4616.00
2019-05-03T04:52:36.288Z,4924.00
2019-05-03T04:53:36.060Z,4284.00
2019-05-03T04:54:36.064Z,4148.00
2019-05-03T04:55:36.574Z,3672.00
2019-05-03T04:56:36.095Z,3448.00
2019-05-03T04:57:42.081Z,3072.00
2019-05-03T04:58:37.008Z,2912.00
2019-05-03T04:59:36.057Z,3184.00
2019-05-03T05:00:36.267Z,2900.00
2019-05-03T05:01:35.983Z,2952.00
2019-05-03T05:02:35.966Z,4068.00
2019-05-03T05:03:36.435Z,3812.00
2019-05-03T05:04:36.028Z,3608.00
2019-05-03T05:05:36.545Z,3568.00
2019-05-03T05:06:35.940Z,3716.00
2019-05-03T05:07:35.914Z,3592.00
2019-05-03T05:08:36.174Z,2876.00
2019-05-03T05:09:35.918Z,2668.00
2019-05-03T05:10:36.408Z,2868.00
2019-05-03T05:11:35.872Z,2936.00
2019-05-03T05:12:35.891Z,2192.00
2019-05-03T05:13:35.859Z,3124.00
2019-05-03T05:14:35.847Z,2756.00
2019-05-03T05:15:35.844Z,3012.00
2019-05-03T05:16:35.822Z,3856.00
2019-05-03T05:17:35.826Z,4812.00
2019-05-03T05:18:35.835Z,4580.00
2019-05-03T05:19:35.812Z,4772.00
2019-05-03T05:20:35.778Z,4492.00
2019-05-03T05:21:35.771Z,4392.00
2019-05-03T05:22:35.759Z,5272.00
2019-05-03T05:23:35.751Z,4848.00
2019-05-03T05:24:35.757Z,5304.00
2019-05-03T05:25:35.727Z,5040.00
2019-05-03T05:26:35.717Z,5336.00
2019-05-03T05:27:48.305Z,5032.00
2019-05-03T05:28:36.694Z,4824.00
2019-05-03T05:29:35.685Z,4640.00
2019-05-03T05:30:35.695Z,4520.00
2019-05-03T05:31:35.713Z,4264.00
2019-05-03T05:32:35.660Z,3952.00
2019-05-03T05:33:35.652Z,3540.00
2019-05-03T05:34:35.637Z,3200.00
2019-05-03T05:35:35.622Z,2808.00
2019-05-03T05:36:35.645Z,2212.00
2019-05-03T05:37:35.623Z,1852.00
2019-05-03T05:38:35.597Z,1920.00
2019-05-03T05:39:35.735Z,1768.00
2019-05-03T05:40:35.591Z,2288.00
2019-05-03T05:41:35.565Z,1876.00
2019-05-03T05:42:35.576Z,1820.00
2019-05-03T05:43:35.821Z,2136.00
2019-05-03T05:44:35.529Z,2008.00
2019-05-03T05:45:35.529Z,1848.00
2019-05-03T05:46:35.524Z,1960.00
2019-05-03T05:47:35.501Z,1980.00
2019-05-03T05:48:35.528Z,2352.00
2019-05-03T05:49:35.482Z,2504.00
2019-05-03T05:50:35.467Z,2476.00
2019-05-03T05:51:35.466Z,3048.00
2019-05-03T05:52:35.460Z,2836.00
2019-05-03T05:53:35.980Z,2584.00
2019-05-03T05:54:35.470Z,2148.00
2019-05-03T05:55:35.437Z,2276.00
2019-05-03T05:56:35.465Z,2296.00
2019-05-03T05:57:35.398Z,2572.00
2019-05-03T05:58:35.390Z,4404.00
2019-05-03T05:59:35.387Z,4016.00
2019-05-03T06:00:35.923Z,3380.00
2019-05-03T06:01:35.486Z,4576.00
2019-05-03T06:02:36.026Z,4224.00
2019-05-03T06:03:35.335Z,4240.00
2019-05-03T06:04:35.324Z,4072.00
2019-05-03T06:05:35.645Z,3636.00
2019-05-03T06:06:35.318Z,3148.00
2019-05-03T06:07:35.301Z,3408.00
2019-05-03T06:08:35.506Z,3236.00
2019-05-03T06:09:35.272Z,3140.00
2019-05-03T06:10:35.268Z,3488.00
2019-05-03T06:11:35.259Z,3284.00
2019-05-03T06:12:35.327Z,3524.00
2019-05-03T06:13:35.258Z,4392.00
2019-05-03T06:14:35.221Z,4388.00
2019-05-03T06:15:35.265Z,4280.00
2019-05-03T06:16:35.197Z,4592.00
2019-05-03T06:17:35.189Z,4504.00
2019-05-03T06:18:35.407Z,4440.00
2019-05-03T06:19:35.198Z,4156.00
2019-05-03T06:20:35.155Z,3680.00
2019-05-03T06:21:35.320Z,3424.00
2019-05-03T06:22:35.140Z,3208.00
2019-05-03T06:23:35.189Z,3148.00
2019-05-03T06:24:35.138Z,2560.00
2019-05-03T06:25:35.405Z,1952.00
2019-05-03T06:26:35.100Z,1764.00
2019-05-03T06:27:35.091Z,1856.00
2019-05-03T06:28:35.384Z,1472.00
2019-05-03T06:29:35.198Z,1220.00
2019-05-03T06:30:35.152Z,1136.00
2019-05-03T06:31:35.051Z,1492.00
2019-05-03T06:32:35.034Z,1480.00
2019-05-03T06:33:35.023Z,1980.00
2019-05-03T06:34:35.444Z,3260.00
2019-05-03T06:35:35.001Z,4092.00
2019-05-03T06:36:35.418Z,4864.00
2019-05-03T06:37:35.411Z,4408.00
2019-05-03T06:38:34.979Z,5124.00
2019-05-03T06:39:35.270Z,5484.00
2019-05-03T06:40:35.370Z,7500.00
2019-05-03T06:41:35.293Z,14032.00
2019-05-03T06:42:35.532Z,17568.00
2019-05-03T06:43:34.947Z,16832.00
2019-05-03T06:44:35.071Z,16704.00
2019-05-03T06:45:35.344Z,18624.00
2019-05-03T06:46:35.547Z,17792.00
2019-05-03T06:47:34.951Z,17536.00
2019-05-03T06:48:35.321Z,19616.00
2019-05-03T06:49:39.138Z,31136.00
2019-05-03T06:50:35.845Z,16576.00
2019-05-03T06:51:35.043Z,13984.00
2019-05-03T06:52:35.170Z,14784.00
2019-05-03T06:53:34.810Z,16576.00
2019-05-03T06:54:37.675Z,17888.00
2019-05-03T06:55:35.182Z,16736.00
2019-05-03T06:56:35.048Z,18560.00
2019-05-03T06:57:35.377Z,21472.00
2019-05-03T06:58:36.469Z,31200.00
2019-05-03T06:59:35.912Z,21024.00
2019-05-03T07:00:35.170Z,20544.00
2019-05-03T07:01:34.724Z,20672.00
2019-05-03T07:02:35.537Z,18464.00
2019-05-03T07:03:35.442Z,19072.00
2019-05-03T07:04:34.834Z,19072.00
2019-05-03T07:05:35.440Z,18880.00
2019-05-03T07:06:40.352Z,18880.00
2019-05-03T07:07:35.665Z,19680.00
2019-05-03T07:08:34.641Z,23648.00
2019-05-03T07:09:35.418Z,25504.00
2019-05-03T07:10:35.295Z,24640.00
2019-05-03T07:11:34.911Z,27584.00
2019-05-03T07:12:35.399Z,25984.00
2019-05-03T07:13:34.713Z,25440.00
2019-05-03T07:14:35.013Z,25824.00
2019-05-03T07:15:35.168Z,28704.00
2019-05-03T07:16:35.341Z,37568.00
2019-05-03T07:17:35.040Z,35168.00
2019-05-03T07:18:35.153Z,43168.00
2019-05-03T07:19:35.409Z,45920.00
2019-05-03T07:20:35.283Z,48160.00
2019-05-03T07:21:35.433Z,49408.00
2019-05-03T07:22:35.231Z,42656.00
2019-05-03T07:23:34.980Z,35520.00
2019-05-03T07:24:40.161Z,32864.00
2019-05-03T07:25:35.452Z,32896.00
2019-05-03T07:26:34.499Z,33536.00
2019-05-03T07:27:34.952Z,30208.00
2019-05-03T07:28:46.446Z,28320.00
2019-05-03T07:29:36.618Z,24320.00
2019-05-03T07:30:35.245Z,24736.00
2019-05-03T07:31:35.393Z,28032.00
2019-05-03T07:32:34.785Z,22432.00
2019-05-03T07:33:34.855Z,20512.00
2019-05-03T07:34:35.101Z,24160.00
2019-05-03T07:35:35.345Z,31584.00
2019-05-03T07:36:35.564Z,33120.00
2019-05-03T07:37:34.855Z,24896.00
2019-05-03T07:38:35.045Z,28416.00
2019-05-03T07:39:34.909Z,22304.00
2019-05-03T07:40:35.332Z,43648.00
2019-05-03T07:41:35.643Z,45696.00
2019-05-03T07:42:34.764Z,52896.00
2019-05-03T07:43:36.055Z,65792.00
2019-05-03T07:44:34.782Z,80544.00
2019-05-03T07:45:35.487Z,84896.00
2019-05-03T07:46:34.913Z,71552.00
2019-05-03T07:47:34.906Z,81856.00
2019-05-03T07:48:35.367Z,83072.00
2019-05-03T07:49:35.736Z,64448.00
2019-05-03T07:50:35.740Z,94176.00
2019-05-03T07:51:34.805Z,96736.00
2019-05-03T07:52:34.850Z,100320.00
2019-05-03T07:53:34.867Z,24480.00
2019-05-03T07:54:34.890Z,21120.00
2019-05-03T07:55:35.278Z,74560.00
2019-05-03T07:56:35.573Z,18208.00
2019-05-03T07:57:35.674Z,20576.00
2019-05-03T07:58:35.110Z,24448.00
2019-05-03T07:59:35.526Z,18464.00
2019-05-03T08:00:34.423Z,15640.00
2019-05-03T08:01:35.578Z,16952.00
2019-05-03T08:02:35.860Z,20736.00
2019-05-03T08:03:34.840Z,100160.00
2019-05-03T08:04:35.872Z,31424.00
2019-05-03T08:05:34.958Z,76160.00
2019-05-03T08:06:34.575Z,77664.00
2019-05-03T08:07:35.636Z,76544.00
2019-05-03T08:08:35.443Z,25440.00
2019-05-03T08:09:35.035Z,89184.00
2019-05-03T08:10:34.491Z,80992.00
2019-05-03T08:11:35.185Z,65376.00
2019-05-03T08:12:34.900Z,93152.00
2019-05-03T08:13:35.601Z,94560.00
2019-05-03T08:14:35.713Z,54752.00
2019-05-03T08:15:34.822Z,28192.00
2019-05-03T08:16:35.321Z,90336.00
2019-05-03T08:17:34.693Z,70656.00
2019-05-03T08:18:35.504Z,60480.00
2019-05-03T08:19:35.794Z,47520.00
2019-05-03T08:20:35.023Z,92288.00
2019-05-03T08:21:38.006Z,104896.00
2019-05-03T08:22:34.535Z,110784.00
2019-05-03T08:23:35.281Z,97312.00
2019-05-03T08:24:34.542Z,118688.00
2019-05-03T08:25:35.452Z,113088.00
2019-05-03T08:26:35.041Z,88800.00
2019-05-03T08:27:35.403Z,71456.00
2019-05-03T08:28:34.670Z,65824.00
2019-05-03T08:29:35.153Z,73728.00
2019-05-03T08:30:35.438Z,74400.00
2019-05-03T08:31:35.350Z,38944.00
2019-05-03T08:32:35.298Z,41888.00
2019-05-03T08:33:35.513Z,29312.00
2019-05-03T08:34:34.802Z,28160.00
2019-05-03T08:35:35.480Z,28640.00
2019-05-03T08:36:34.934Z,26848.00
2019-05-03T08:37:34.921Z,27744.00
2019-05-03T08:38:34.519Z,28192.00
2019-05-03T08:39:35.568Z,54176.00
2019-05-03T08:40:35.025Z,26688.00
2019-05-03T08:41:35.170Z,26080.00
2019-05-03T08:42:35.153Z,24704.00
2019-05-03T08:43:35.670Z,21440.00
2019-05-03T08:44:35.372Z,20064.00
2019-05-03T08:45:34.690Z,19968.00
2019-05-03T08:46:35.476Z,22880.00
2019-05-03T08:47:34.491Z,31296.00
2019-05-03T08:48:35.480Z,31360.00
2019-05-03T08:49:34.721Z,29504.00
2019-05-03T08:50:34.739Z,28832.00
2019-05-03T08:51:35.236Z,27264.00
2019-05-03T08:52:34.815Z,27808.00
2019-05-03T08:53:35.643Z,34560.00
2019-05-03T08:54:34.708Z,93632.00
2019-05-03T08:55:35.207Z,40160.00
2019-05-03T08:56:34.863Z,36160.00
2019-05-03T08:57:35.288Z,26848.00
2019-05-03T08:58:34.796Z,31840.00
2019-05-03T08:59:35.537Z,28896.00
2019-05-03T09:00:35.263Z,31328.00
2019-05-03T09:01:35.723Z,33888.00
2019-05-03T09:02:34.565Z,35712.00
2019-05-03T09:03:36.260Z,30464.00
2019-05-03T09:04:37.928Z,28640.00
2019-05-03T09:05:35.981Z,26848.00
2019-05-03T09:06:35.361Z,25792.00
2019-05-03T09:07:35.431Z,25536.00
2019-05-03T09:08:35.385Z,25152.00
2019-05-03T09:09:34.849Z,24768.00
2019-05-03T09:10:35.212Z,25920.00
2019-05-03T09:11:34.800Z,28224.00
2019-05-03T09:12:34.310Z,29280.00
2019-05-03T09:13:34.308Z,32096.00
2019-05-03T09:14:42.474Z,51552.00
2019-05-03T09:15:35.095Z,40352.00
2019-05-03T09:16:33.192Z,34176.00
2019-05-03T09:17:35.179Z,36352.00
2019-05-03T09:18:34.584Z,40416.00
2019-05-03T09:19:34.731Z,48256.00
2019-05-03T09:20:33.153Z,48000.00
2019-05-03T09:21:34.763Z,53888.00
2019-05-03T09:22:34.838Z,39904.00
2019-05-03T09:23:35.556Z,47584.00
2019-05-03T09:24:35.001Z,72544.00
2019-05-03T09:25:34.867Z,76032.00
2019-05-03T09:26:34.810Z,37536.00
2019-05-03T09:27:34.386Z,37248.00
2019-05-03T09:28:34.842Z,62112.00
2019-05-03T09:29:41.067Z,77376.00
2019-05-03T09:30:35.716Z,87040.00
2019-05-03T09:31:35.127Z,48768.00
2019-05-03T09:32:34.927Z,46112.00
2019-05-03T09:33:33.007Z,35648.00
2019-05-03T09:34:34.957Z,42496.00
2019-05-03T09:35:35.740Z,35392.00
2019-05-03T09:36:34.493Z,44960.00
2019-05-03T09:37:32.967Z,65152.00
2019-05-03T09:38:34.874Z,26176.00
2019-05-03T09:39:32.938Z,29216.00
2019-05-03T09:40:35.047Z,101824.00
2019-05-03T09:41:34.778Z,43296.00
2019-05-03T09:42:35.117Z,80256.00
2019-05-03T09:43:32.930Z,88224.00
2019-05-03T09:44:34.831Z,43008.00
2019-05-03T09:45:35.100Z,40512.00
2019-05-03T09:46:32.865Z,33280.00
2019-05-03T09:47:32.875Z,34208.00
2019-05-03T09:48:34.723Z,37728.00
2019-05-03T09:49:34.599Z,66176.00
2019-05-03T09:50:32.822Z,48768.00
2019-05-03T09:51:34.847Z,30784.00
2019-05-03T09:52:35.368Z,28576.00
2019-05-03T09:53:35.014Z,27648.00
2019-05-03T09:54:34.765Z,25888.00
2019-05-03T09:55:32.764Z,21792.00
2019-05-03T09:56:34.578Z,14244.00
2019-05-03T09:57:34.652Z,11440.00
2019-05-03T09:58:37.754Z,11172.00
2019-05-03T09:59:35.039Z,13012.00
2019-05-03T10:00:32.708Z,15308.00
2019-05-03T10:01:34.562Z,18368.00
2019-05-03T10:02:32.683Z,24064.00
2019-05-03T10:03:32.674Z,112000.00
2019-05-03T10:04:32.666Z,41280.00
2019-05-03T10:05:34.928Z,35232.00
2019-05-03T10:06:32.661Z,31168.00
2019-05-03T10:07:32.627Z,27360.00
2019-05-03T10:08:32.615Z,26080.00
2019-05-03T10:09:32.608Z,25440.00
2019-05-03T10:10:32.592Z,25248.00
2019-05-03T10:11:35.005Z,27456.00
2019-05-03T10:12:32.573Z,80416.00
2019-05-03T10:13:35.203Z,84544.00
2019-05-03T10:14:32.558Z,86112.00
2019-05-03T10:15:32.538Z,33568.00
2019-05-03T10:16:32.527Z,40416.00
2019-05-03T10:17:34.920Z,35328.00
2019-05-03T10:18:32.512Z,46656.00
2019-05-03T10:19:37.681Z,81952.00
2019-05-03T10:20:34.866Z,90112.00
2019-05-03T10:21:32.470Z,99936.00
2019-05-03T10:22:32.472Z,111104.00
2019-05-03T10:23:32.467Z,108224.00
2019-05-03T10:24:32.440Z,36256.00
2019-05-03T10:25:32.428Z,30368.00
2019-05-03T10:26:32.418Z,27296.00
2019-05-03T10:27:32.407Z,25056.00
2019-05-03T10:28:32.404Z,21504.00
2019-05-03T10:29:32.399Z,20512.00
2019-05-03T10:30:32.374Z,20032.00
2019-05-03T10:31:32.368Z,20768.00
2019-05-03T10:32:32.374Z,20192.00
2019-05-03T10:33:32.344Z,19424.00
2019-05-03T10:34:32.334Z,19552.00
2019-05-03T10:35:32.370Z,20448.00
2019-05-03T10:36:32.308Z,23808.00
2019-05-03T10:37:32.300Z,31136.00
2019-05-03T10:38:32.285Z,23520.00
2019-05-03T10:39:32.274Z,23392.00
2019-05-03T10:40:32.281Z,25248.00
2019-05-03T10:41:34.620Z,28288.00
2019-05-03T10:42:32.253Z,34720.00
2019-05-03T10:43:32.242Z,98496.00
2019-05-03T10:44:32.248Z,92256.00
2019-05-03T10:45:32.207Z,101344.00
2019-05-03T10:46:34.044Z,39520.00
2019-05-03T10:47:32.204Z,38176.00
2019-05-03T10:48:32.174Z,77216.00
2019-05-03T10:49:32.165Z,105888.00
2019-05-03T10:50:32.153Z,81056.00
2019-05-03T10:51:32.150Z,33408.00
2019-05-03T10:52:32.130Z,109408.00
2019-05-03T10:53:32.136Z,58752.00
2019-05-03T10:54:32.153Z,97440.00
2019-05-03T10:55:32.103Z,77408.00
2019-05-03T10:56:32.087Z,84192.00
2019-05-03T10:57:32.095Z,65952.00
2019-05-03T10:58:32.067Z,73696.00
2019-05-03T10:59:32.074Z,55712.00
2019-05-03T11:00:46.303Z,64096.00
2019-05-03T11:01:33.034Z,56480.00
2019-05-03T11:02:32.022Z,52256.00
2019-05-03T11:03:32.012Z,47744.00
2019-05-03T11:04:32.001Z,50528.00
2019-05-03T11:05:32.012Z,52352.00
2019-05-03T11:06:32.015Z,54176.00
2019-05-03T11:07:31.971Z,55456.00
2019-05-03T11:08:31.963Z,66048.00
2019-05-03T11:09:47.568Z,55296.00
2019-05-03T11:10:32.957Z,54368.00
2019-05-03T11:11:31.927Z,52768.00
2019-05-03T11:12:31.915Z,57664.00
2019-05-03T11:13:31.905Z,33536.00
2019-05-03T11:14:31.891Z,29920.00
2019-05-03T11:15:31.884Z,76448.00
2019-05-03T11:16:31.896Z,62432.00
2019-05-03T11:17:31.861Z,87488.00
2019-05-03T11:18:31.850Z,106432.00
2019-05-03T11:19:31.843Z,79232.00
2019-05-03T11:20:32.139Z,67904.00
2019-05-03T11:21:31.823Z,54368.00
2019-05-03T11:22:31.823Z,52128.00
2019-05-03T11:23:31.793Z,90240.00
2019-05-03T11:24:31.782Z,52736.00
2019-05-03T11:25:31.774Z,55008.00
2019-05-03T11:26:31.767Z,37344.00
2019-05-03T11:27:31.750Z,26336.00
2019-05-03T11:28:31.759Z,23104.00
2019-05-03T11:29:31.737Z,21024.00
2019-05-03T11:30:31.723Z,19296.00
2019-05-03T11:31:31.715Z,17824.00
2019-05-03T11:32:31.697Z,16416.00
2019-05-03T11:33:31.692Z,15264.00
2019-05-03T11:34:31.695Z,14088.00
2019-05-03T11:35:31.672Z,12192.00
2019-05-03T11:36:31.926Z,10864.00
2019-05-03T11:37:31.640Z,11132.00
2019-05-03T11:38:31.628Z,11824.00
2019-05-03T11:39:31.624Z,13160.00
2019-05-03T11:40:31.625Z,14712.00
2019-05-03T11:41:32.818Z,15304.00
2019-05-03T11:42:31.586Z,14880.00
2019-05-03T11:43:31.571Z,14596.00
2019-05-03T11:44:31.562Z,14624.00
2019-05-03T11:45:31.552Z,14932.00
2019-05-03T11:46:31.584Z,16512.00
2019-05-03T11:47:31.531Z,20832.00
2019-05-03T11:48:31.519Z,22720.00
2019-05-03T11:49:31.505Z,20704.00
2019-05-03T11:50:31.495Z,21440.00
2019-05-03T11:51:31.485Z,24640.00
2019-05-03T11:52:31.504Z,24224.00
2019-05-03T11:53:31.465Z,22656.00
2019-05-03T11:54:31.452Z,20992.00
2019-05-03T11:55:31.443Z,20352.00
2019-05-03T11:56:31.428Z,18400.00
2019-05-03T11:57:31.417Z,16484.00
2019-05-03T11:58:31.436Z,15168.00
2019-05-03T11:59:31.404Z,14336.00
2019-05-03T12:00:31.391Z,14368.00
2019-05-03T12:01:31.426Z,16236.00
2019-05-03T12:02:31.369Z,18304.00
2019-05-03T12:03:31.353Z,19168.00
2019-05-03T12:04:31.355Z,19328.00
2019-05-03T12:05:31.329Z,21792.00
2019-05-03T12:06:31.325Z,21216.00
2019-05-03T12:07:38.958Z,21696.00
2019-05-03T12:08:34.466Z,22336.00
2019-05-03T12:09:31.288Z,23296.00
2019-05-03T12:10:48.395Z,21888.00
2019-05-03T12:11:32.262Z,20352.00
2019-05-03T12:12:31.256Z,19392.00
2019-05-03T12:13:31.257Z,19104.00
2019-05-03T12:14:31.230Z,18880.00
2019-05-03T12:15:31.240Z,18912.00
2019-05-03T12:17:08.675Z,18848.00
2019-05-03T12:17:32.811Z,19552.00